sensor_id;sensor_type;location;lat;lon;timestamp;temperature;humidity
34989;DHT22;21192;40.182;44.516;2022-08-01T00:00:34;26.30;56.90
34989;DHT22;21192;40.182;44.516;2022-08-01T00:03:00;26.30;57.10
34989;DHT22;21192;40.182;44.516;2022-08-01T00:05:26;26.30;57.10
34989;DHT22;21192;40.182;44.516;2022-08-01T00:07:52;26.30;57.40
34989;DHT22;21192;40.182;44.516;2022-08-01T00:10:18;26.30;57.60
34989;DHT22;21192;40.182;44.516;2022-08-01T00:12:45;26.30;57.60
34989;DHT22;21192;40.182;44.516;2022-08-01T00:15:13;26.30;57.70
34989;DHT22;21192;40.182;44.516;2022-08-01T00:17:40;26.20;57.80
34989;DHT22;21192;40.182;44.516;2022-08-01T00:20:12;26.20;58.00
34989;DHT22;21192;40.182;44.516;2022-08-01T00:22:38;26.10;58.00
34989;DHT22;21192;40.182;44.516;2022-08-01T00:25:05;26.10;58.00
34989;DHT22;21192;40.182;44.516;2022-08-01T00:27:31;26.10;58.00
34989;DHT22;21192;40.182;44.516;2022-08-01T00:29:58;26.10;57.90
34989;DHT22;21192;40.182;44.516;2022-08-01T00:32:24;26.00;57.80
34989;DHT22;21192;40.182;44.516;2022-08-01T00:34:50;26.00;57.80
34989;DHT22;21192;40.182;44.516;2022-08-01T00:37:16;25.90;57.70
34989;DHT22;21192;40.182;44.516;2022-08-01T00:39:42;25.90;57.70
34989;DHT22;21192;40.182;44.516;2022-08-01T00:42:10;25.80;57.60
34989;DHT22;21192;40.182;44.516;2022-08-01T00:44:36;25.80;57.70
34989;DHT22;21192;40.182;44.516;2022-08-01T00:47:03;25.80;57.50
34989;DHT22;21192;40.182;44.516;2022-08-01T00:49:29;25.80;57.50
34989;DHT22;21192;40.182;44.516;2022-08-01T00:51:56;25.80;57.50
34989;DHT22;21192;40.182;44.516;2022-08-01T00:54:24;25.70;57.10
34989;DHT22;21192;40.182;44.516;2022-08-01T00:56:51;25.70;57.10
34989;DHT22;21192;40.182;44.516;2022-08-01T00:59:22;25.60;57.00
34989;DHT22;21192;40.182;44.516;2022-08-01T01:01:48;25.60;56.80
34989;DHT22;21192;40.182;44.516;2022-08-01T01:04:14;25.60;56.60
34989;DHT22;21192;40.182;44.516;2022-08-01T01:07:06;25.60;56.70
34989;DHT22;21192;40.182;44.516;2022-08-01T01:12:40;25.50;56.50
34989;DHT22;21192;40.182;44.516;2022-08-01T01:15:15;25.40;56.40
34989;DHT22;21192;40.182;44.516;2022-08-01T01:17:55;25.40;56.50
34989;DHT22;21192;40.182;44.516;2022-08-01T01:20:30;25.30;56.40
34989;DHT22;21192;40.182;44.516;2022-08-01T01:23:01;25.30;56.50
34989;DHT22;21192;40.182;44.516;2022-08-01T01:25:45;25.40;56.50
34989;DHT22;21192;40.182;44.516;2022-08-01T01:31:08;25.20;56.30
34989;DHT22;21192;40.182;44.516;2022-08-01T01:33:35;25.20;56.30
34989;DHT22;21192;40.182;44.516;2022-08-01T01:36:05;25.20;56.50
34989;DHT22;21192;40.182;44.516;2022-08-01T01:38:39;25.20;56.50
34989;DHT22;21192;40.182;44.516;2022-08-01T01:41:11;25.20;56.40
34989;DHT22;21192;40.182;44.516;2022-08-01T01:43:39;25.20;56.30
34989;DHT22;21192;40.182;44.516;2022-08-01T01:46:06;25.30;56.20
34989;DHT22;21192;40.182;44.516;2022-08-01T01:48:34;25.40;56.30
34989;DHT22;21192;40.182;44.516;2022-08-01T01:51:01;25.30;56.30
34989;DHT22;21192;40.182;44.516;2022-08-01T01:53:29;25.30;56.40
34989;DHT22;21192;40.182;44.516;2022-08-01T01:55:57;25.40;56.40
34989;DHT22;21192;40.182;44.516;2022-08-01T01:58:24;25.30;56.30
34989;DHT22;21192;40.182;44.516;2022-08-01T02:00:52;25.30;56.40
34989;DHT22;21192;40.182;44.516;2022-08-01T02:03:21;25.30;56.50
34989;DHT22;21192;40.182;44.516;2022-08-01T02:05:51;25.30;56.50
34989;DHT22;21192;40.182;44.516;2022-08-01T02:08:17;25.30;56.50
34989;DHT22;21192;40.182;44.516;2022-08-01T02:10:45;25.20;56.50
34989;DHT22;21192;40.182;44.516;2022-08-01T02:13:32;25.20;56.30
34989;DHT22;21192;40.182;44.516;2022-08-01T02:16:00;25.20;56.20
34989;DHT22;21192;40.182;44.516;2022-08-01T02:18:26;25.10;56.00
34989;DHT22;21192;40.182;44.516;2022-08-01T02:20:54;25.10;56.00
34989;DHT22;21192;40.182;44.516;2022-08-01T02:23:23;25.10;56.00
34989;DHT22;21192;40.182;44.516;2022-08-01T02:25:52;25.20;56.30
34989;DHT22;21192;40.182;44.516;2022-08-01T02:28:35;25.20;55.40
34989;DHT22;21192;40.182;44.516;2022-08-01T02:31:09;25.30;55.30
34989;DHT22;21192;40.182;44.516;2022-08-01T02:33:46;25.20;55.30
34989;DHT22;21192;40.182;44.516;2022-08-01T02:36:14;25.30;55.30
34989;DHT22;21192;40.182;44.516;2022-08-01T02:38:44;25.40;55.10
34989;DHT22;21192;40.182;44.516;2022-08-01T02:41:14;25.60;55.00
34989;DHT22;21192;40.182;44.516;2022-08-01T02:43:46;25.90;54.60
34989;DHT22;21192;40.182;44.516;2022-08-01T02:46:20;26.40;54.10
34989;DHT22;21192;40.182;44.516;2022-08-01T02:48:48;26.80;53.30
34989;DHT22;21192;40.182;44.516;2022-08-01T02:51:16;27.20;52.80
34989;DHT22;21192;40.182;44.516;2022-08-01T02:53:45;27.50;52.10
34989;DHT22;21192;40.182;44.516;2022-08-01T02:56:12;27.80;51.70
34989;DHT22;21192;40.182;44.516;2022-08-01T02:58:39;28.10;51.40
34989;DHT22;21192;40.182;44.516;2022-08-01T03:01:07;28.40;50.90
34989;DHT22;21192;40.182;44.516;2022-08-01T03:03:34;28.70;50.30
34989;DHT22;21192;40.182;44.516;2022-08-01T03:06:01;28.90;49.70
34989;DHT22;21192;40.182;44.516;2022-08-01T03:08:30;29.10;49.30
34989;DHT22;21192;40.182;44.516;2022-08-01T03:10:56;29.40;48.70
34989;DHT22;21192;40.182;44.516;2022-08-01T03:13:25;29.60;48.20
34989;DHT22;21192;40.182;44.516;2022-08-01T03:15:54;29.80;47.90
34989;DHT22;21192;40.182;44.516;2022-08-01T03:18:23;30.20;47.50
34989;DHT22;21192;40.182;44.516;2022-08-01T03:20:50;30.60;47.10
34989;DHT22;21192;40.182;44.516;2022-08-01T03:23:18;31.00;46.50
34989;DHT22;21192;40.182;44.516;2022-08-01T03:25:47;31.40;46.00
34989;DHT22;21192;40.182;44.516;2022-08-01T03:28:16;31.90;45.30
34989;DHT22;21192;40.182;44.516;2022-08-01T03:30:42;32.40;44.60
34989;DHT22;21192;40.182;44.516;2022-08-01T03:33:09;33.00;44.00
34989;DHT22;21192;40.182;44.516;2022-08-01T03:35:51;33.50;43.10
34989;DHT22;21192;40.182;44.516;2022-08-01T03:38:23;34.10;42.20
34989;DHT22;21192;40.182;44.516;2022-08-01T03:41:13;34.60;41.90
34989;DHT22;21192;40.182;44.516;2022-08-01T03:43:46;35.30;41.60
34989;DHT22;21192;40.182;44.516;2022-08-01T03:46:23;35.80;41.00
34989;DHT22;21192;40.182;44.516;2022-08-01T03:48:53;36.20;40.30
34989;DHT22;21192;40.182;44.516;2022-08-01T03:51:21;36.70;39.80
34989;DHT22;21192;40.182;44.516;2022-08-01T03:53:49;36.90;39.50
34989;DHT22;21192;40.182;44.516;2022-08-01T03:56:18;37.40;39.00
34989;DHT22;21192;40.182;44.516;2022-08-01T03:58:48;37.70;38.50
34989;DHT22;21192;40.182;44.516;2022-08-01T04:01:15;38.20;38.30
34989;DHT22;21192;40.182;44.516;2022-08-01T04:03:42;38.60;37.60
34989;DHT22;21192;40.182;44.516;2022-08-01T04:06:09;38.40;37.20
34989;DHT22;21192;40.182;44.516;2022-08-01T04:08:36;38.60;37.30
34989;DHT22;21192;40.182;44.516;2022-08-01T04:11:03;38.90;36.80
34989;DHT22;21192;40.182;44.516;2022-08-01T04:13:30;39.30;36.30
34989;DHT22;21192;40.182;44.516;2022-08-01T04:15:56;39.30;36.00
34989;DHT22;21192;40.182;44.516;2022-08-01T04:18:21;39.50;35.80
34989;DHT22;21192;40.182;44.516;2022-08-01T04:20:47;39.90;35.10
34989;DHT22;21192;40.182;44.516;2022-08-01T04:23:16;40.60;34.70
34989;DHT22;21192;40.182;44.516;2022-08-01T04:25:43;41.20;33.90
34989;DHT22;21192;40.182;44.516;2022-08-01T04:28:12;41.70;33.40
34989;DHT22;21192;40.182;44.516;2022-08-01T04:30:43;42.30;32.80
34989;DHT22;21192;40.182;44.516;2022-08-01T04:33:13;42.90;32.10
34989;DHT22;21192;40.182;44.516;2022-08-01T04:35:44;43.40;31.50
34989;DHT22;21192;40.182;44.516;2022-08-01T04:38:15;44.00;31.10
34989;DHT22;21192;40.182;44.516;2022-08-01T04:40:44;44.60;30.50
34989;DHT22;21192;40.182;44.516;2022-08-01T04:43:12;45.10;30.00
34989;DHT22;21192;40.182;44.516;2022-08-01T04:45:39;45.60;30.20
34989;DHT22;21192;40.182;44.516;2022-08-01T04:48:05;46.20;29.20
34989;DHT22;21192;40.182;44.516;2022-08-01T04:50:32;46.70;28.70
34989;DHT22;21192;40.182;44.516;2022-08-01T04:53:00;47.00;28.70
34989;DHT22;21192;40.182;44.516;2022-08-01T04:55:29;47.40;27.70
34989;DHT22;21192;40.182;44.516;2022-08-01T04:57:56;47.40;27.30
34989;DHT22;21192;40.182;44.516;2022-08-01T05:00:22;47.40;27.30
34989;DHT22;21192;40.182;44.516;2022-08-01T05:02:48;47.50;27.10
34989;DHT22;21192;40.182;44.516;2022-08-01T05:05:14;47.70;27.00
34989;DHT22;21192;40.182;44.516;2022-08-01T05:07:43;47.90;26.80
34989;DHT22;21192;40.182;44.516;2022-08-01T05:10:09;48.30;26.60
34989;DHT22;21192;40.182;44.516;2022-08-01T05:12:35;48.00;26.50
34989;DHT22;21192;40.182;44.516;2022-08-01T05:15:01;47.90;26.70
34989;DHT22;21192;40.182;44.516;2022-08-01T05:17:28;47.50;26.90
34989;DHT22;21192;40.182;44.516;2022-08-01T05:19:54;46.50;27.20
34989;DHT22;21192;40.182;44.516;2022-08-01T05:22:19;44.70;28.30
34989;DHT22;21192;40.182;44.516;2022-08-01T05:24:46;43.20;29.30
34989;DHT22;21192;40.182;44.516;2022-08-01T05:27:12;42.00;30.20
34989;DHT22;21192;40.182;44.516;2022-08-01T05:29:39;41.10;31.30
34989;DHT22;21192;40.182;44.516;2022-08-01T05:32:06;40.40;32.20
34989;DHT22;21192;40.182;44.516;2022-08-01T05:34:32;39.70;32.70
34989;DHT22;21192;40.182;44.516;2022-08-01T05:36:58;39.10;33.20
34989;DHT22;21192;40.182;44.516;2022-08-01T05:39:24;38.50;33.90
34989;DHT22;21192;40.182;44.516;2022-08-01T05:41:50;38.30;34.60
34989;DHT22;21192;40.182;44.516;2022-08-01T05:44:16;38.00;35.10
34989;DHT22;21192;40.182;44.516;2022-08-01T05:46:42;37.90;35.20
34989;DHT22;21192;40.182;44.516;2022-08-01T05:49:08;37.80;35.40
34989;DHT22;21192;40.182;44.516;2022-08-01T05:51:34;37.80;35.40
34989;DHT22;21192;40.182;44.516;2022-08-01T05:54:00;37.70;35.70
34989;DHT22;21192;40.182;44.516;2022-08-01T05:56:26;37.60;36.00
34989;DHT22;21192;40.182;44.516;2022-08-01T05:58:52;37.30;36.20
34989;DHT22;21192;40.182;44.516;2022-08-01T06:01:18;37.20;36.40
34989;DHT22;21192;40.182;44.516;2022-08-01T06:03:45;37.10;36.60
34989;DHT22;21192;40.182;44.516;2022-08-01T06:06:12;36.80;37.10
34989;DHT22;21192;40.182;44.516;2022-08-01T06:08:39;36.80;37.20
34989;DHT22;21192;40.182;44.516;2022-08-01T06:11:06;36.70;37.50
34989;DHT22;21192;40.182;44.516;2022-08-01T06:13:32;36.60;37.90
34989;DHT22;21192;40.182;44.516;2022-08-01T06:15:58;36.50;38.30
34989;DHT22;21192;40.182;44.516;2022-08-01T06:18:24;36.60;38.60
34989;DHT22;21192;40.182;44.516;2022-08-01T06:20:50;36.60;38.70
34989;DHT22;21192;40.182;44.516;2022-08-01T06:23:16;36.70;38.70
34989;DHT22;21192;40.182;44.516;2022-08-01T06:25:43;36.60;38.80
34989;DHT22;21192;40.182;44.516;2022-08-01T06:28:10;36.50;39.10
34989;DHT22;21192;40.182;44.516;2022-08-01T06:30:36;36.30;39.20
34989;DHT22;21192;40.182;44.516;2022-08-01T06:33:03;36.10;39.60
34989;DHT22;21192;40.182;44.516;2022-08-01T06:35:29;36.00;39.50
34989;DHT22;21192;40.182;44.516;2022-08-01T06:37:56;36.00;39.50
34989;DHT22;21192;40.182;44.516;2022-08-01T06:40:22;35.90;39.70
34989;DHT22;21192;40.182;44.516;2022-08-01T06:42:57;35.70;39.80
34989;DHT22;21192;40.182;44.516;2022-08-01T06:45:23;35.70;39.90
34989;DHT22;21192;40.182;44.516;2022-08-01T06:47:51;35.70;39.60
34989;DHT22;21192;40.182;44.516;2022-08-01T06:50:18;35.60;39.90
34989;DHT22;21192;40.182;44.516;2022-08-01T06:52:44;35.60;39.80
34989;DHT22;21192;40.182;44.516;2022-08-01T06:55:10;35.50;39.60
34989;DHT22;21192;40.182;44.516;2022-08-01T06:57:36;35.60;39.50
34989;DHT22;21192;40.182;44.516;2022-08-01T07:00:06;35.60;39.60
34989;DHT22;21192;40.182;44.516;2022-08-01T07:02:37;35.40;40.00
34989;DHT22;21192;40.182;44.516;2022-08-01T07:05:04;35.50;39.90
34989;DHT22;21192;40.182;44.516;2022-08-01T07:07:30;35.40;39.80
34989;DHT22;21192;40.182;44.516;2022-08-01T07:09:56;35.40;39.80
34989;DHT22;21192;40.182;44.516;2022-08-01T07:12:22;35.40;40.00
34989;DHT22;21192;40.182;44.516;2022-08-01T07:14:48;35.40;40.60
34989;DHT22;21192;40.182;44.516;2022-08-01T07:17:14;35.30;39.90
34989;DHT22;21192;40.182;44.516;2022-08-01T07:19:40;35.20;40.20
34989;DHT22;21192;40.182;44.516;2022-08-01T07:22:06;35.20;40.50
34989;DHT22;21192;40.182;44.516;2022-08-01T07:24:32;35.20;40.40
34989;DHT22;21192;40.182;44.516;2022-08-01T07:26:58;35.30;40.10
34989;DHT22;21192;40.182;44.516;2022-08-01T07:29:25;35.20;40.10
34989;DHT22;21192;40.182;44.516;2022-08-01T07:31:55;35.10;40.50
34989;DHT22;21192;40.182;44.516;2022-08-01T07:34:22;35.00;40.50
34989;DHT22;21192;40.182;44.516;2022-08-01T07:36:48;34.90;40.60
34989;DHT22;21192;40.182;44.516;2022-08-01T07:39:14;34.80;40.90
34989;DHT22;21192;40.182;44.516;2022-08-01T07:41:40;34.70;40.70
34989;DHT22;21192;40.182;44.516;2022-08-01T07:44:06;34.60;40.30
34989;DHT22;21192;40.182;44.516;2022-08-01T07:46:32;34.40;40.80
34989;DHT22;21192;40.182;44.516;2022-08-01T07:48:58;34.40;40.80
34989;DHT22;21192;40.182;44.516;2022-08-01T07:51:24;34.40;40.90
34989;DHT22;21192;40.182;44.516;2022-08-01T07:53:50;34.50;40.70
34989;DHT22;21192;40.182;44.516;2022-08-01T07:56:16;34.60;41.00
34989;DHT22;21192;40.182;44.516;2022-08-01T07:58:42;34.50;41.40
34989;DHT22;21192;40.182;44.516;2022-08-01T08:01:09;34.40;41.30
34989;DHT22;21192;40.182;44.516;2022-08-01T08:03:35;34.40;41.20
34989;DHT22;21192;40.182;44.516;2022-08-01T08:06:00;34.40;41.20
34989;DHT22;21192;40.182;44.516;2022-08-01T08:08:27;34.40;41.40
34989;DHT22;21192;40.182;44.516;2022-08-01T08:10:53;34.40;41.30
34989;DHT22;21192;40.182;44.516;2022-08-01T08:13:19;34.30;41.10
34989;DHT22;21192;40.182;44.516;2022-08-01T08:15:44;34.10;41.30
34989;DHT22;21192;40.182;44.516;2022-08-01T08:18:10;34.10;41.40
34989;DHT22;21192;40.182;44.516;2022-08-01T08:20:37;34.00;41.70
34989;DHT22;21192;40.182;44.516;2022-08-01T08:23:03;34.00;41.80
34989;DHT22;21192;40.182;44.516;2022-08-01T08:25:48;34.00;41.70
34989;DHT22;21192;40.182;44.516;2022-08-01T08:28:16;33.90;41.90
34989;DHT22;21192;40.182;44.516;2022-08-01T08:30:41;34.00;41.70
34989;DHT22;21192;40.182;44.516;2022-08-01T08:33:07;33.90;41.80
34989;DHT22;21192;40.182;44.516;2022-08-01T08:35:33;33.80;42.00
34989;DHT22;21192;40.182;44.516;2022-08-01T08:37:59;33.80;42.40
34989;DHT22;21192;40.182;44.516;2022-08-01T08:40:29;33.90;42.50
34989;DHT22;21192;40.182;44.516;2022-08-01T08:42:57;33.90;42.00
34989;DHT22;21192;40.182;44.516;2022-08-01T08:45:26;33.80;42.10
34989;DHT22;21192;40.182;44.516;2022-08-01T08:47:53;33.80;42.30
34989;DHT22;21192;40.182;44.516;2022-08-01T08:50:21;33.70;42.70
34989;DHT22;21192;40.182;44.516;2022-08-01T08:52:47;33.70;42.70
34989;DHT22;21192;40.182;44.516;2022-08-01T08:55:16;33.80;42.80
34989;DHT22;21192;40.182;44.516;2022-08-01T08:57:44;33.80;42.60
34989;DHT22;21192;40.182;44.516;2022-08-01T09:00:13;33.80;42.40
34989;DHT22;21192;40.182;44.516;2022-08-01T09:02:44;33.70;42.80
34989;DHT22;21192;40.182;44.516;2022-08-01T09:05:11;33.60;42.80
34989;DHT22;21192;40.182;44.516;2022-08-01T09:07:37;33.70;43.80
34989;DHT22;21192;40.182;44.516;2022-08-01T09:10:04;33.70;43.30
34989;DHT22;21192;40.182;44.516;2022-08-01T09:12:31;33.80;43.00
34989;DHT22;21192;40.182;44.516;2022-08-01T09:14:57;33.80;42.90
34989;DHT22;21192;40.182;44.516;2022-08-01T09:17:23;33.80;42.70
34989;DHT22;21192;40.182;44.516;2022-08-01T09:19:55;33.90;42.80
34989;DHT22;21192;40.182;44.516;2022-08-01T09:22:24;34.00;42.60
34989;DHT22;21192;40.182;44.516;2022-08-01T09:25:03;34.00;42.60
34989;DHT22;21192;40.182;44.516;2022-08-01T09:27:30;33.90;42.50
34989;DHT22;21192;40.182;44.516;2022-08-01T09:32:52;34.00;42.50
34989;DHT22;21192;40.182;44.516;2022-08-01T09:35:38;34.00;42.10
34989;DHT22;21192;40.182;44.516;2022-08-01T09:38:20;34.00;42.10
34989;DHT22;21192;40.182;44.516;2022-08-01T09:40:54;34.00;42.00
34989;DHT22;21192;40.182;44.516;2022-08-01T09:43:21;34.00;42.00
34989;DHT22;21192;40.182;44.516;2022-08-01T09:45:48;33.90;41.90
34989;DHT22;21192;40.182;44.516;2022-08-01T09:48:14;33.80;41.90
34989;DHT22;21192;40.182;44.516;2022-08-01T09:50:47;33.80;42.00
34989;DHT22;21192;40.182;44.516;2022-08-01T09:53:13;33.70;42.10
34989;DHT22;21192;40.182;44.516;2022-08-01T09:55:40;33.80;42.30
34989;DHT22;21192;40.182;44.516;2022-08-01T09:58:07;33.70;42.60
34989;DHT22;21192;40.182;44.516;2022-08-01T10:00:35;33.70;42.70
34989;DHT22;21192;40.182;44.516;2022-08-01T10:03:23;33.80;42.70
34989;DHT22;21192;40.182;44.516;2022-08-01T10:05:49;33.80;42.70
34989;DHT22;21192;40.182;44.516;2022-08-01T10:08:16;33.80;42.40
34989;DHT22;21192;40.182;44.516;2022-08-01T10:11:09;33.90;42.50
34989;DHT22;21192;40.182;44.516;2022-08-01T10:13:36;33.80;42.50
34989;DHT22;21192;40.182;44.516;2022-08-01T10:16:02;33.80;42.50
34989;DHT22;21192;40.182;44.516;2022-08-01T10:18:32;33.90;42.30
34989;DHT22;21192;40.182;44.516;2022-08-01T10:21:01;34.00;42.30
34989;DHT22;21192;40.182;44.516;2022-08-01T10:23:28;34.00;42.10
34989;DHT22;21192;40.182;44.516;2022-08-01T10:25:58;33.90;42.30
34989;DHT22;21192;40.182;44.516;2022-08-01T10:28:25;34.00;42.40
34989;DHT22;21192;40.182;44.516;2022-08-01T10:30:52;33.90;42.20
34989;DHT22;21192;40.182;44.516;2022-08-01T10:33:20;33.90;42.10
34989;DHT22;21192;40.182;44.516;2022-08-01T10:35:47;33.90;42.20
34989;DHT22;21192;40.182;44.516;2022-08-01T10:38:13;33.90;42.30
34989;DHT22;21192;40.182;44.516;2022-08-01T10:40:43;34.00;42.40
34989;DHT22;21192;40.182;44.516;2022-08-01T10:43:11;34.00;41.80
34989;DHT22;21192;40.182;44.516;2022-08-01T10:45:38;34.10;42.00
34989;DHT22;21192;40.182;44.516;2022-08-01T10:50:48;34.20;42.00
34989;DHT22;21192;40.182;44.516;2022-08-01T10:53:20;34.20;41.80
34989;DHT22;21192;40.182;44.516;2022-08-01T10:55:51;34.20;41.80
34989;DHT22;21192;40.182;44.516;2022-08-01T10:58:25;34.30;41.80
34989;DHT22;21192;40.182;44.516;2022-08-01T11:01:26;34.30;41.00
34989;DHT22;21192;40.182;44.516;2022-08-01T11:09:03;34.20;40.40
34989;DHT22;21192;40.182;44.516;2022-08-01T11:11:30;34.30;41.10
34989;DHT22;21192;40.182;44.516;2022-08-01T11:14:05;34.40;40.20
34989;DHT22;21192;40.182;44.516;2022-08-01T11:16:39;34.40;40.10
34989;DHT22;21192;40.182;44.516;2022-08-01T11:19:06;34.50;39.90
34989;DHT22;21192;40.182;44.516;2022-08-01T11:32:54;34.60;39.70
34989;DHT22;21192;40.182;44.516;2022-08-01T11:35:23;34.70;39.60
34989;DHT22;21192;40.182;44.516;2022-08-01T11:37:53;34.70;39.40
34989;DHT22;21192;40.182;44.516;2022-08-01T11:40:25;34.70;39.10
34989;DHT22;21192;40.182;44.516;2022-08-01T11:45:55;34.70;39.30
34989;DHT22;21192;40.182;44.516;2022-08-01T11:48:23;34.80;39.50
34989;DHT22;21192;40.182;44.516;2022-08-01T11:50:56;34.80;39.80
34989;DHT22;21192;40.182;44.516;2022-08-01T11:53:22;34.80;39.80
34989;DHT22;21192;40.182;44.516;2022-08-01T11:55:50;34.80;39.60
34989;DHT22;21192;40.182;44.516;2022-08-01T11:58:21;34.90;39.40
34989;DHT22;21192;40.182;44.516;2022-08-01T12:00:56;34.90;39.70
34989;DHT22;21192;40.182;44.516;2022-08-01T12:03:27;34.90;39.20
34989;DHT22;21192;40.182;44.516;2022-08-01T12:05:56;34.90;38.90
34989;DHT22;21192;40.182;44.516;2022-08-01T12:08:31;34.80;38.50
34989;DHT22;21192;40.182;44.516;2022-08-01T12:11:04;34.80;38.70
34989;DHT22;21192;40.182;44.516;2022-08-01T12:13:43;34.80;38.60
34989;DHT22;21192;40.182;44.516;2022-08-01T12:16:11;34.90;38.50
34989;DHT22;21192;40.182;44.516;2022-08-01T12:18:41;34.90;38.30
34989;DHT22;21192;40.182;44.516;2022-08-01T12:21:08;34.90;38.30
34989;DHT22;21192;40.182;44.516;2022-08-01T12:23:34;34.90;38.10
34989;DHT22;21192;40.182;44.516;2022-08-01T12:26:00;34.90;38.30
34989;DHT22;21192;40.182;44.516;2022-08-01T12:28:27;34.90;37.40
34989;DHT22;21192;40.182;44.516;2022-08-01T12:30:53;34.90;37.40
34989;DHT22;21192;40.182;44.516;2022-08-01T12:33:20;34.90;37.50
34989;DHT22;21192;40.182;44.516;2022-08-01T12:35:46;34.90;37.60
34989;DHT22;21192;40.182;44.516;2022-08-01T12:38:19;34.90;37.70
34989;DHT22;21192;40.182;44.516;2022-08-01T12:40:46;35.00;37.80
34989;DHT22;21192;40.182;44.516;2022-08-01T12:43:18;35.00;37.50
34989;DHT22;21192;40.182;44.516;2022-08-01T12:45:47;35.00;37.30
34989;DHT22;21192;40.182;44.516;2022-08-01T12:48:16;35.00;37.30
34989;DHT22;21192;40.182;44.516;2022-08-01T12:50:47;35.00;38.10
34989;DHT22;21192;40.182;44.516;2022-08-01T12:53:14;35.10;38.40
34989;DHT22;21192;40.182;44.516;2022-08-01T12:55:52;35.00;38.30
34989;DHT22;21192;40.182;44.516;2022-08-01T12:58:19;35.10;38.40
34989;DHT22;21192;40.182;44.516;2022-08-01T13:00:48;35.10;38.50
34989;DHT22;21192;40.182;44.516;2022-08-01T13:03:19;35.10;38.50
34989;DHT22;21192;40.182;44.516;2022-08-01T13:05:56;35.10;38.60
34989;DHT22;21192;40.182;44.516;2022-08-01T13:13:45;35.10;39.30
34989;DHT22;21192;40.182;44.516;2022-08-01T13:16:26;35.10;39.30
34989;DHT22;21192;40.182;44.516;2022-08-01T13:18:54;35.10;39.40
34989;DHT22;21192;40.182;44.516;2022-08-01T13:21:29;35.10;39.40
34989;DHT22;21192;40.182;44.516;2022-08-01T13:24:09;35.10;38.70
34989;DHT22;21192;40.182;44.516;2022-08-01T13:29:20;35.00;38.20
34989;DHT22;21192;40.182;44.516;2022-08-01T13:31:47;35.00;38.60
34989;DHT22;21192;40.182;44.516;2022-08-01T13:34:13;35.00;39.00
34989;DHT22;21192;40.182;44.516;2022-08-01T13:36:40;35.10;39.50
34989;DHT22;21192;40.182;44.516;2022-08-01T13:39:06;35.10;39.70
34989;DHT22;21192;40.182;44.516;2022-08-01T13:42:13;35.10;39.50
34989;DHT22;21192;40.182;44.516;2022-08-01T13:44:40;35.00;39.30
34989;DHT22;21192;40.182;44.516;2022-08-01T13:47:07;35.10;38.50
34989;DHT22;21192;40.182;44.516;2022-08-01T13:49:34;35.10;39.00
34989;DHT22;21192;40.182;44.516;2022-08-01T13:52:00;35.10;37.90
34989;DHT22;21192;40.182;44.516;2022-08-01T13:54:26;35.10;37.80
34989;DHT22;21192;40.182;44.516;2022-08-01T13:56:53;35.10;37.80
34989;DHT22;21192;40.182;44.516;2022-08-01T13:59:19;35.20;37.90
34989;DHT22;21192;40.182;44.516;2022-08-01T14:01:46;35.20;37.70
34989;DHT22;21192;40.182;44.516;2022-08-01T14:04:12;35.20;37.70
34989;DHT22;21192;40.182;44.516;2022-08-01T14:06:39;35.10;37.70
34989;DHT22;21192;40.182;44.516;2022-08-01T14:09:05;35.10;38.10
34989;DHT22;21192;40.182;44.516;2022-08-01T14:11:31;35.00;38.00
34989;DHT22;21192;40.182;44.516;2022-08-01T14:13:57;35.00;38.20
34989;DHT22;21192;40.182;44.516;2022-08-01T14:16:24;34.90;38.70
34989;DHT22;21192;40.182;44.516;2022-08-01T14:18:50;34.90;38.50
34989;DHT22;21192;40.182;44.516;2022-08-01T14:21:16;34.80;38.60
34989;DHT22;21192;40.182;44.516;2022-08-01T14:23:42;34.80;38.60
34989;DHT22;21192;40.182;44.516;2022-08-01T14:26:09;34.70;39.40
34989;DHT22;21192;40.182;44.516;2022-08-01T14:28:36;34.60;40.40
34989;DHT22;21192;40.182;44.516;2022-08-01T14:31:02;34.60;40.70
34989;DHT22;21192;40.182;44.516;2022-08-01T14:33:28;34.50;41.00
34989;DHT22;21192;40.182;44.516;2022-08-01T14:35:55;34.50;41.60
34989;DHT22;21192;40.182;44.516;2022-08-01T14:38:21;34.50;42.40
34989;DHT22;21192;40.182;44.516;2022-08-01T14:40:47;34.40;43.00
34989;DHT22;21192;40.182;44.516;2022-08-01T14:43:17;34.30;43.80
34989;DHT22;21192;40.182;44.516;2022-08-01T14:45:43;34.20;44.70
34989;DHT22;21192;40.182;44.516;2022-08-01T14:48:09;34.10;45.20
34989;DHT22;21192;40.182;44.516;2022-08-01T14:50:36;34.00;45.90
34989;DHT22;21192;40.182;44.516;2022-08-01T14:53:02;33.90;46.70
34989;DHT22;21192;40.182;44.516;2022-08-01T14:55:28;33.90;47.20
34989;DHT22;21192;40.182;44.516;2022-08-01T14:57:54;33.80;47.80
34989;DHT22;21192;40.182;44.516;2022-08-01T15:00:20;33.80;48.50
34989;DHT22;21192;40.182;44.516;2022-08-01T15:02:47;33.60;48.80
34989;DHT22;21192;40.182;44.516;2022-08-01T15:05:13;33.60;49.10
34989;DHT22;21192;40.182;44.516;2022-08-01T15:07:39;33.50;49.50
34989;DHT22;21192;40.182;44.516;2022-08-01T15:10:06;33.40;50.00
34989;DHT22;21192;40.182;44.516;2022-08-01T15:12:32;33.30;50.20
34989;DHT22;21192;40.182;44.516;2022-08-01T15:14:59;33.20;50.60
34989;DHT22;21192;40.182;44.516;2022-08-01T15:17:27;33.10;50.80
34989;DHT22;21192;40.182;44.516;2022-08-01T15:19:59;33.00;50.90
34989;DHT22;21192;40.182;44.516;2022-08-01T15:22:28;32.90;50.80
34989;DHT22;21192;40.182;44.516;2022-08-01T15:24:57;32.80;51.00
34989;DHT22;21192;40.182;44.516;2022-08-01T15:27:24;32.70;51.00
34989;DHT22;21192;40.182;44.516;2022-08-01T15:29:51;32.60;51.30
34989;DHT22;21192;40.182;44.516;2022-08-01T15:32:17;32.50;51.50
34989;DHT22;21192;40.182;44.516;2022-08-01T15:34:44;32.40;51.70
34989;DHT22;21192;40.182;44.516;2022-08-01T15:37:11;32.30;51.80
34989;DHT22;21192;40.182;44.516;2022-08-01T15:39:37;32.30;52.00
34989;DHT22;21192;40.182;44.516;2022-08-01T15:42:11;32.20;52.20
34989;DHT22;21192;40.182;44.516;2022-08-01T15:44:37;32.10;52.30
34989;DHT22;21192;40.182;44.516;2022-08-01T15:47:06;32.00;52.50
34989;DHT22;21192;40.182;44.516;2022-08-01T15:49:32;31.90;52.50
34989;DHT22;21192;40.182;44.516;2022-08-01T15:52:05;31.80;52.80
34989;DHT22;21192;40.182;44.516;2022-08-01T15:54:31;31.70;53.10
34989;DHT22;21192;40.182;44.516;2022-08-01T15:56:58;31.60;53.10
34989;DHT22;21192;40.182;44.516;2022-08-01T15:59:24;31.50;53.30
34989;DHT22;21192;40.182;44.516;2022-08-01T16:01:50;31.30;53.70